createdAt,value
2018-06-29T00:00:32.182Z,4.53
2018-06-29T00:03:03.203Z,4.93
2018-06-29T00:05:34.226Z,4.53
2018-06-29T00:08:06.097Z,4.07
2018-06-29T00:10:36.951Z,4.60
2018-06-29T00:13:07.498Z,5.17
2018-06-29T00:15:38.213Z,4.37
2018-06-29T00:18:09.191Z,4.47
2018-06-29T00:20:40.119Z,4.73
2018-06-29T00:23:11.026Z,4.53
2018-06-29T00:25:41.495Z,4.80
2018-06-29T00:28:12.342Z,4.40
2018-06-29T00:30:43.258Z,4.30
2018-06-29T00:33:14.176Z,4.50
2018-06-29T00:35:45.112Z,4.30
2018-06-29T00:38:16.082Z,4.43
2018-06-29T00:40:46.444Z,4.30
2018-06-29T00:43:16.783Z,4.90
2018-06-29T00:45:47.579Z,4.97
2018-06-29T00:48:18.654Z,4.93
2018-06-29T00:50:49.612Z,4.70
2018-06-29T00:53:20.494Z,4.33
2018-06-29T00:55:51.386Z,5.43
2018-06-29T00:58:22.313Z,5.60
2018-06-29T01:00:53.348Z,5.10
2018-06-29T01:03:24.321Z,4.83
2018-06-29T01:05:55.273Z,5.20
2018-06-29T01:11:09.008Z,5.20
2018-06-29T01:13:39.799Z,4.67
2018-06-29T01:16:10.690Z,5.43
2018-06-29T01:18:41.569Z,4.83
2018-06-29T01:21:12.273Z,4.77
2018-06-29T01:23:43.174Z,5.60
2018-06-29T01:26:14.004Z,4.87
2018-06-29T01:28:44.971Z,4.90
2018-06-29T01:31:15.678Z,4.97
2018-06-29T01:33:46.519Z,5.07
2018-06-29T01:36:17.413Z,5.53
2018-06-29T01:38:48.100Z,4.67
2018-06-29T01:41:18.977Z,4.90
2018-06-29T01:43:49.863Z,5.30
2018-06-29T01:46:20.678Z,5.87
2018-06-29T01:48:51.457Z,5.40
2018-06-29T01:51:22.405Z,5.40
2018-06-29T01:53:53.226Z,5.70
2018-06-29T01:56:24.038Z,5.23
2018-06-29T01:58:54.738Z,4.53
2018-06-29T02:01:25.644Z,5.20
2018-06-29T02:03:56.423Z,4.80
2018-06-29T02:06:27.261Z,4.83
2018-06-29T02:08:57.621Z,5.97
2018-06-29T02:11:28.262Z,6.47
2018-06-29T02:13:58.967Z,6.27
2018-06-29T02:16:29.777Z,6.80
2018-06-29T02:19:00.549Z,5.87
2018-06-29T02:21:31.453Z,6.30
2018-06-29T02:24:01.750Z,6.10
2018-06-29T02:26:32.397Z,5.20
2018-06-29T02:29:03.141Z,6.30
2018-06-29T02:31:33.396Z,6.50
2018-06-29T02:34:04.094Z,5.80
2018-06-29T02:36:34.828Z,5.97
2018-06-29T02:39:08.668Z,6.40
2018-06-29T02:41:39.428Z,5.50
2018-06-29T02:44:10.179Z,5.93
2018-06-29T02:46:40.983Z,6.40
2018-06-29T02:49:11.839Z,6.40
2018-06-29T02:51:42.948Z,6.20
2018-06-29T02:54:13.723Z,6.23
2018-06-29T02:56:44.574Z,6.20
2018-06-29T02:59:15.297Z,6.10
2018-06-29T03:01:46.209Z,6.73
2018-06-29T03:04:17.012Z,7.27
2018-06-29T03:06:47.752Z,6.97
2018-06-29T03:09:18.440Z,8.07
2018-06-29T03:11:49.252Z,7.70
2018-06-29T03:14:20.100Z,8.13
2018-06-29T03:16:50.986Z,9.00
2018-06-29T03:19:21.831Z,8.33
2018-06-29T03:21:52.676Z,8.43
2018-06-29T03:24:23.528Z,8.30
2018-06-29T03:26:54.368Z,7.53
2018-06-29T03:29:25.172Z,7.80
2018-06-29T03:31:55.953Z,7.47
2018-06-29T03:34:26.762Z,7.40
2018-06-29T03:36:57.563Z,6.73
2018-06-29T03:39:28.391Z,7.53
2018-06-29T03:41:59.183Z,7.20
2018-06-29T03:44:29.927Z,6.70
2018-06-29T03:47:00.874Z,6.60
2018-06-29T03:49:31.681Z,6.53
2018-06-29T03:52:02.666Z,6.40
2018-06-29T03:54:33.473Z,6.43
2018-06-29T03:57:04.438Z,6.77
2018-06-29T03:59:35.304Z,6.37
2018-06-29T04:02:06.135Z,6.47
2018-06-29T04:04:37.363Z,6.30
2018-06-29T04:07:09.313Z,6.10
2018-06-29T04:09:40.226Z,6.30
2018-06-29T04:12:11.047Z,7.10
2018-06-29T04:14:41.896Z,9.20
2018-06-29T04:17:12.726Z,8.70
2018-06-29T04:19:43.462Z,9.20
2018-06-29T04:22:15.119Z,9.73
2018-06-29T04:24:45.924Z,9.40
2018-06-29T04:27:16.744Z,8.90
2018-06-29T04:29:47.614Z,9.83
2018-06-29T04:32:23.369Z,10.03
2018-06-29T04:34:54.429Z,9.13
2018-06-29T04:37:25.285Z,8.97
2018-06-29T04:39:56.226Z,8.53
2018-06-29T04:42:27.046Z,8.03
2018-06-29T04:44:57.939Z,7.67
2018-06-29T04:47:28.857Z,6.97
2018-06-29T04:49:59.671Z,7.13
2018-06-29T04:52:30.786Z,7.20
2018-06-29T04:55:01.662Z,6.70
2018-06-29T04:57:32.522Z,6.90
2018-06-29T05:00:03.208Z,7.40
2018-06-29T05:02:34.261Z,7.23
2018-06-29T05:05:05.156Z,6.70
2018-06-29T05:07:35.958Z,6.93
2018-06-29T05:10:06.775Z,7.17
2018-06-29T05:12:39.434Z,6.40
2018-06-29T05:15:11.367Z,6.70
2018-06-29T05:17:45.699Z,5.80
2018-06-29T05:20:17.271Z,6.10
2018-06-29T05:38:44.877Z,6.30
2018-06-29T05:41:15.605Z,6.37
2018-06-29T05:43:46.423Z,6.20
2018-06-29T05:46:16.864Z,6.00
2018-06-29T05:48:47.992Z,5.80
2018-06-29T05:51:18.760Z,6.43
2018-06-29T05:53:49.692Z,6.07
2018-06-29T05:56:20.638Z,6.53
2018-06-29T05:58:51.522Z,6.53
2018-06-29T06:01:22.425Z,6.60
2018-06-29T06:03:53.305Z,6.53
2018-06-29T06:06:24.432Z,6.63
2018-06-29T06:08:55.212Z,6.57
2018-06-29T06:11:26.414Z,6.33
2018-06-29T06:13:57.318Z,6.70
2018-06-29T06:16:28.469Z,6.93
2018-06-29T06:20:14.937Z,6.17
2018-06-29T06:22:45.803Z,7.27
2018-06-29T06:25:16.719Z,6.77
2018-06-29T06:27:47.683Z,6.90
2018-06-29T06:30:18.670Z,6.47
2018-06-29T06:32:49.162Z,5.80
2018-06-29T06:35:21.074Z,5.53
2018-06-29T06:37:52.261Z,5.70
2018-06-29T06:40:23.285Z,5.40
2018-06-29T06:42:54.154Z,5.73
2018-06-29T06:45:25.047Z,5.50
2018-06-29T06:49:13.116Z,5.83
2018-06-29T06:52:18.687Z,5.30
2018-06-29T06:54:52.765Z,5.83
2018-06-29T06:57:27.140Z,5.83
2018-06-29T07:00:00.614Z,5.97
2018-06-29T07:02:31.635Z,5.57
2018-06-29T07:05:02.637Z,5.90
2018-06-29T07:07:33.676Z,5.80
2018-06-29T07:10:04.829Z,5.77
2018-06-29T07:12:41.865Z,6.67
2018-06-29T07:15:15.597Z,6.30
2018-06-29T07:17:46.555Z,6.37
2018-06-29T07:20:17.587Z,7.30
2018-06-29T07:22:48.800Z,6.50
2018-06-29T07:25:19.209Z,7.07
2018-06-29T07:27:50.030Z,7.27
2018-06-29T07:30:20.956Z,6.73
2018-06-29T07:32:51.846Z,6.70
2018-06-29T07:35:22.707Z,7.70
2018-06-29T07:37:53.580Z,7.30
2018-06-29T07:40:24.436Z,7.47
2018-06-29T07:42:56.900Z,7.17
2018-06-29T07:45:28.953Z,7.10
2018-06-29T07:47:59.761Z,7.13
2018-06-29T07:50:30.668Z,7.47
2018-06-29T07:53:01.485Z,7.73
2018-06-29T07:55:32.601Z,7.77
2018-06-29T07:58:03.455Z,7.33
2018-06-29T08:00:34.369Z,7.70
2018-06-29T08:03:05.171Z,6.97
2018-06-29T08:05:36.063Z,7.73
2018-06-29T08:08:06.941Z,7.27
2018-06-29T08:10:37.740Z,7.63
2018-06-29T08:13:08.654Z,7.63
2018-06-29T08:15:39.592Z,7.40
2018-06-29T08:18:10.507Z,6.80
2018-06-29T08:20:41.366Z,7.63
2018-06-29T08:23:12.256Z,7.20
2018-06-29T08:25:43.136Z,7.73
2018-06-29T08:28:15.146Z,7.87
2018-06-29T08:30:46.086Z,8.17
2018-06-29T08:33:16.976Z,7.57
2018-06-29T08:35:47.950Z,8.30
2018-06-29T08:38:19.404Z,8.63
2018-06-29T08:40:50.371Z,8.50
2018-06-29T08:43:21.257Z,8.97
2018-06-29T08:45:52.157Z,9.23
2018-06-29T08:48:23.039Z,9.33
2018-06-29T08:50:53.850Z,8.67
2018-06-29T08:53:24.810Z,8.00
2018-06-29T08:55:56.221Z,8.47
2018-06-29T08:58:27.213Z,7.63
2018-06-29T09:00:58.095Z,8.37
2018-06-29T09:03:28.933Z,7.80
2018-06-29T09:05:59.995Z,7.17
2018-06-29T09:08:31.018Z,7.00
2018-06-29T09:11:03.208Z,6.83
2018-06-29T09:13:34.228Z,6.63
2018-06-29T09:16:05.361Z,6.27
2018-06-29T09:18:36.360Z,7.00
2018-06-29T09:21:07.399Z,6.73
2018-06-29T09:23:39.779Z,6.30
2018-06-29T09:26:10.706Z,6.40
2018-06-29T09:28:43.000Z,7.70
2018-06-29T09:31:13.917Z,7.37
2018-06-29T09:33:44.774Z,7.37
2018-06-29T09:36:15.601Z,6.27
2018-06-29T09:38:46.375Z,7.53
2018-06-29T09:41:17.207Z,7.17
2018-06-29T09:43:48.653Z,7.10
2018-06-29T09:46:20.487Z,6.73
2018-06-29T09:48:51.257Z,7.27
2018-06-29T09:52:32.564Z,7.17
2018-06-29T09:55:03.471Z,7.20
2018-06-29T09:57:34.441Z,7.83
2018-06-29T10:00:07.628Z,8.10
2018-06-29T10:02:39.274Z,7.50
2018-06-29T10:05:09.402Z,8.40
2018-06-29T10:07:44.353Z,8.07
2018-06-29T10:10:16.532Z,7.73
2018-06-29T10:12:55.636Z,7.53
2018-06-29T10:18:17.929Z,7.90
2018-06-29T10:20:49.298Z,7.83
2018-06-29T10:23:38.435Z,8.03
2018-06-29T10:26:11.033Z,7.80
2018-06-29T10:28:50.220Z,8.07
2018-06-29T10:31:29.754Z,8.27
2018-06-29T10:34:08.162Z,8.43
2018-06-29T10:36:45.472Z,8.30
2018-06-29T10:39:16.824Z,7.87
2018-06-29T10:41:47.736Z,9.20
2018-06-29T10:44:18.670Z,8.40
2018-06-29T10:46:49.586Z,8.03
2018-06-29T10:49:24.791Z,7.43
2018-06-29T10:51:55.662Z,8.50
2018-06-29T10:54:26.579Z,7.93
2018-06-29T10:56:57.420Z,8.03
2018-06-29T10:59:29.283Z,8.23
2018-06-29T11:02:00.187Z,7.93
2018-06-29T11:04:31.047Z,8.07
2018-06-29T11:07:02.059Z,8.37
2018-06-29T11:09:33.043Z,7.73
2018-06-29T11:12:03.986Z,7.50
2018-06-29T11:14:35.538Z,8.23
2018-06-29T11:17:06.520Z,7.97
2018-06-29T11:19:37.391Z,7.73
2018-06-29T11:22:07.780Z,7.03
2018-06-29T11:24:38.503Z,7.30
2018-06-29T11:27:09.566Z,6.80
2018-06-29T11:29:40.312Z,7.13
2018-06-29T11:32:11.138Z,7.40
2018-06-29T11:34:42.119Z,7.17
2018-06-29T11:37:13.143Z,7.27
2018-06-29T11:39:44.099Z,7.57
2018-06-29T11:42:14.865Z,6.70
2018-06-29T11:44:47.444Z,6.57
2018-06-29T11:47:18.349Z,7.30
2018-06-29T11:49:49.162Z,7.03
2018-06-29T11:52:20.094Z,7.27
2018-06-29T11:54:53.507Z,6.83
2018-06-29T11:57:26.949Z,7.17
2018-06-29T11:59:57.907Z,7.53
2018-06-29T12:02:28.811Z,7.17
2018-06-29T12:04:59.572Z,6.60
2018-06-29T12:07:30.644Z,6.90
2018-06-29T12:10:01.501Z,6.83
2018-06-29T12:12:32.373Z,6.87
2018-06-29T12:15:03.126Z,6.47
2018-06-29T12:17:33.910Z,6.17
2018-06-29T12:20:04.654Z,6.10
2018-06-29T12:22:35.530Z,6.47
2018-06-29T12:25:06.438Z,7.10
2018-06-29T12:27:37.322Z,6.63
2018-06-29T12:30:08.049Z,5.73
2018-06-29T12:32:38.840Z,6.90
2018-06-29T12:35:09.634Z,6.40
2018-06-29T12:37:39.981Z,6.67
2018-06-29T12:40:10.893Z,6.50
2018-06-29T12:42:41.736Z,6.70
2018-06-29T12:45:12.663Z,5.83
2018-06-29T12:47:43.119Z,6.20
2018-06-29T12:50:13.895Z,5.90
2018-06-29T12:52:44.799Z,6.50
2018-06-29T12:55:15.716Z,6.00
2018-06-29T12:57:46.683Z,6.47
2018-06-29T13:00:17.811Z,6.13
2018-06-29T13:02:49.033Z,5.90
2018-06-29T13:05:20.049Z,5.90
2018-06-29T13:07:50.909Z,6.60
2018-06-29T13:10:21.382Z,5.83
2018-06-29T13:12:52.697Z,6.20
2018-06-29T13:15:24.414Z,6.10
2018-06-29T13:17:55.556Z,6.10
2018-06-29T13:20:26.537Z,6.13
2018-06-29T13:22:57.523Z,5.67
2018-06-29T13:25:28.415Z,5.60
2018-06-29T13:28:00.351Z,5.80
2018-06-29T13:30:31.551Z,5.47
2018-06-29T13:33:02.404Z,5.97
2018-06-29T13:35:37.232Z,5.60
2018-06-29T13:38:08.198Z,5.93
2018-06-29T13:40:38.615Z,5.70
2018-06-29T13:43:09.792Z,5.90
2018-06-29T13:45:50.485Z,6.23
2018-06-29T13:48:21.448Z,5.73
2018-06-29T13:50:52.487Z,5.97
2018-06-29T13:53:24.087Z,5.97
2018-06-29T13:56:05.348Z,5.60
2018-06-29T13:58:37.478Z,5.80
2018-06-29T14:01:09.849Z,5.97
2018-06-29T14:03:40.764Z,5.80
2018-06-29T14:06:14.163Z,6.07
2018-06-29T14:08:45.141Z,6.03
2018-06-29T14:12:12.460Z,7.00
2018-06-29T14:14:58.831Z,6.00
2018-06-29T14:17:29.841Z,6.27
2018-06-29T14:20:00.771Z,5.43
2018-06-29T14:22:52.378Z,5.90
2018-06-29T14:25:28.513Z,6.17
2018-06-29T14:27:59.472Z,6.63
2018-06-29T14:30:35.210Z,5.90
2018-06-29T14:33:06.194Z,6.13
2018-06-29T14:35:39.431Z,5.90
2018-06-29T14:38:26.981Z,6.30
2018-06-29T14:41:17.770Z,6.30
2018-06-29T15:43:00.570Z,8.23
2018-06-29T15:45:31.390Z,7.80
2018-06-29T15:48:03.019Z,8.07
2018-06-29T15:50:33.860Z,8.23
2018-06-29T15:53:04.225Z,7.80
2018-06-29T15:55:35.148Z,7.50
2018-06-29T15:58:06.102Z,6.90
2018-06-29T16:00:41.137Z,7.40
2018-06-29T16:03:12.248Z,7.67
2018-06-29T16:05:42.997Z,7.43
2018-06-29T16:08:13.937Z,7.17
2018-06-29T16:10:44.844Z,5.70
2018-06-29T16:13:15.622Z,5.80
2018-06-29T16:15:46.690Z,6.20
2018-06-29T16:18:17.427Z,7.03
2018-06-29T16:20:49.984Z,7.40
2018-06-29T16:23:20.917Z,11.07
2018-06-29T16:25:51.983Z,9.60
2018-06-29T16:28:22.841Z,9.73
2018-06-29T16:30:53.862Z,9.37
2018-06-29T16:33:24.891Z,10.90
2018-06-29T16:36:06.379Z,8.60
2018-06-29T16:38:50.831Z,7.87
2018-06-29T16:41:22.100Z,7.93
2018-06-29T16:43:53.657Z,8.83
2018-06-29T16:46:26.682Z,8.43
